Αναφορές METAR Αεροδρομίων

 

LGTS - THESSALONIKI - GREECE
Ενημερώθηκε: 14/11/2019 15:20
Αραιές Νεφώσεις
Αραιές Νεφώσεις
 Ανεμος από ΔΒΔ
Ανεμος: ΔΒΔ 7 km/h
Θερμοκρασία: 19°C
Σημείο Δρόσου: 14°C
Υγρασία: 73%
Βαρόμετρο: 1010 hPa
Clouds: Αραιές Νεφώσεις
Visibility: 10 km
Cloud details: Αραιές Νεφώσεις 610 m
2019/11/14 13:20 LGTS 141320Z 30004KT 9999 FEW020 19/14 Q1010 NOSIG
LGLR - LARTISA - GREECE
Ενημερώθηκε: 14/11/2019 13:50
NOT Current
Αραιές Νεφώσεις
Αραιές Νεφώσεις
 Ανεμος από calm
Ανεμος: Απνοια
Θερμοκρασία: 19°C
Σημείο Δρόσου: 13°C
Υγρασία: 68%
Βαρόμετρο: 1009 hPa
Clouds: Αραιές Νεφώσεις
Visibility: 10 km
Cloud details: Αραιές Νεφώσεις 762 m
2019/11/14 11:50 LGLR 141150Z 00000KT 9999 FEW025 19/13 Q1009 RMK FEW180 BLU
 
LGKZ - KOZANI - GREECE
Ενημερώθηκε: 14/11/2019 14:50
Μερικώς νεφελώδης
Μερικώς νεφελώδης
 Ανεμος από ΝΑ
Ανεμος: ΝΑ 9 km/h
Θερμοκρασία: 15°C
Σημείο Δρόσου: 10°C
Υγρασία: 72%
Βαρόμετρο: 1010 hPa
Clouds: Μερικώς νεφελώδης
Visibility: 10 km
Cloud details: Μερικώς νεφελώδης 610 m
Μερικώς νεφελώδης 2134 m
2019/11/14 12:50 LGKZ 141250Z 13005KT 9999 SCT020 SCT070 15/10 Q1010
LGKV - KAVALA - GREECE
Ενημερώθηκε: 14/11/2019 15:20
Ασθενής βροχή, Συννεφιά
Ασθενής βροχή, Συννεφιά
 Ανεμος από ΔΝΔ
Ανεμος: ΔΝΔ 19 km/h
Θερμοκρασία: 15°C
Σημείο Δρόσου: 14°C
Υγρασία: 94%
Βαρόμετρο: 1008 hPa
Περίληψη: Ασθενής βροχή
Clouds: Συννεφιά
Visibility: 9 km
Cloud details: Αραιές Νεφώσεις 152 m
Αραιές Νεφώσεις 549 m
Σχεδόν νεφελώδης 762 m
Συννεφιά 2134 m
2019/11/14 13:20 LGKV 141320Z 24010KT 9000 -RA FEW005 FEW018TCU BKN025 OVC070 15/14 Q1008
 
LGIO - IOANNINA - GREECE
Ενημερώθηκε: 14/11/2019 15:20

 Ανεμος από Α
Ανεμος: Α 11 km/h
Θερμοκρασία: 14°C
Σημείο Δρόσου: 11°C
Υγρασία: 82%
Βαρόμετρο: 1011 hPa
2019/11/14 13:20 LGIO 141320Z AUTO 09006KT //// // ////// 14/11 Q1011 RE//
LGBL - BOLOS - GREECE
Ενημερώθηκε: 14/11/2019 15:20
Αραιές Νεφώσεις
Αραιές Νεφώσεις
 Ανεμος από Α
Ανεμος: Α 7 km/h
Θερμοκρασία: 19°C
Σημείο Δρόσου: 13°C
Υγρασία: 68%
Βαρόμετρο: 1009 hPa
Clouds: Αραιές Νεφώσεις
Visibility: 10 km
Cloud details: Αραιές Νεφώσεις 914 m
2019/11/14 13:20 LGBL 141320Z 10004KT 9999 FEW030 19/13 Q1009
 
LGMT - MITILINI - GREECE
Ενημερώθηκε: 14/11/2019 15:20
Αραιές Νεφώσεις
Αραιές Νεφώσεις
 Ανεμος από ΝΑ
Ανεμος: ΝΑ 11 km/h
Θερμοκρασία: 20°C
Σημείο Δρόσου: 14°C
Υγρασία: 69%
Βαρόμετρο: 1011 hPa
Clouds: Αραιές Νεφώσεις
Visibility: 10 km
Cloud details: Αραιές Νεφώσεις 610 m
2019/11/14 13:20 LGMT 141320Z 14006KT 110V220 9999 FEW020 20/14 Q1011
LGAV - ATHENS - GREECE
Ενημερώθηκε: 14/11/2019 15:20
Μερικώς νεφελώδης
Μερικώς νεφελώδης
 Ανεμος από varies
Ανεμος: varies 6 km/h
Θερμοκρασία: 21°C
Σημείο Δρόσου: 10°C
Υγρασία: 50%
Βαρόμετρο: 1010 hPa
Clouds: Μερικώς νεφελώδης
Visibility: 10 km
Cloud details: Μερικώς νεφελώδης 610 m
2019/11/14 13:20 LGAV 141320Z VRB03KT 9999 SCT020TCU 21/10 Q1010 NOSIG
 
LGRP - RODOS - GREECE
Ενημερώθηκε: 14/11/2019 15:20
Αραιές Νεφώσεις
Αραιές Νεφώσεις
 Ανεμος από ΑΒΑ
Ανεμος: ΑΒΑ 11 km/h
Θερμοκρασία: 20°C
Σημείο Δρόσου: 16°C
Υγρασία: 78%
Βαρόμετρο: 1010 hPa
Clouds: Αραιές Νεφώσεις
Visibility: 10 km
Cloud details: Αραιές Νεφώσεις 366 m
2019/11/14 13:20 LGRP 141320Z 06006KT 9999 FEW012 20/16 Q1010 NOSIG
LGIR - HRAKLIO/KRITI - GREECE
Ενημερώθηκε: 14/11/2019 15:20
Αραιές Νεφώσεις
Αραιές Νεφώσεις
 Ανεμος από ΒΔ
Ανεμος: ΒΔ 19 km/h
Θερμοκρασία: 21°C
Σημείο Δρόσου: 14°C
Υγρασία: 64%
Βαρόμετρο: 1011 hPa
Clouds: Αραιές Νεφώσεις
Visibility: 10 km
Cloud details: Αραιές Νεφώσεις 762 m
2019/11/14 13:20 LGIR 141320Z 32010KT 9999 FEW025 21/14 Q1011 NOSIG
 
LGMK - MIKONOS - GREECE
Ενημερώθηκε: 14/11/2019 15:20
Μερικώς νεφελώδης
Μερικώς νεφελώδης
 Ανεμος από varies
Ανεμος: varies 6 km/h
Θερμοκρασία: 19°C
Σημείο Δρόσου: 11°C
Υγρασία: 60%
Βαρόμετρο: 1011 hPa
Clouds: Μερικώς νεφελώδης
Visibility: 10 km
Cloud details: Μερικώς νεφελώδης 335 m
2019/11/14 13:20 LGMK 141320Z VRB03KT 9999 SCT011 19/11 Q1011
LGKR - KERKIRA - GREECE
Ενημερώθηκε: 14/11/2019 15:20
Σχεδόν νεφελώδης
Σχεδόν νεφελώδης
 Ανεμος από Ν
Ανεμος: Ν 6 km/h
Θερμοκρασία: 19°C
Σημείο Δρόσου: 15°C
Υγρασία: 78%
Βαρόμετρο: 1009 hPa
Clouds: Σχεδόν νεφελώδης
Visibility: 10 km
Cloud details: Μερικώς νεφελώδης 549 m
Σχεδόν νεφελώδης 914 m
Σχεδόν νεφελώδης 2438 m
2019/11/14 13:20 LGKR 141320Z 18003KT 9999 SCT018TCU BKN030 BKN080 19/15 Q1009 NOSIG